sensor_id;sensor_type;location;lat;lon;timestamp;P1;durP1;ratioP1;P2;durP2;ratioP2
76459;SDS011;65299;46.084;18.762;2023-08-06T00:01:27;3.80;;;2.73;;
76459;SDS011;65299;46.084;18.762;2023-08-06T00:04:27;4.83;;;3.53;;
76459;SDS011;65299;46.084;18.762;2023-08-06T00:07:27;6.50;;;2.37;;
76459;SDS011;65299;46.084;18.762;2023-08-06T00:10:28;3.83;;;2.70;;
76459;SDS011;65299;46.084;18.762;2023-08-06T00:13:28;6.03;;;2.50;;
76459;SDS011;65299;46.084;18.762;2023-08-06T00:16:29;5.13;;;2.57;;
76459;SDS011;65299;46.084;18.762;2023-08-06T00:19:29;4.53;;;2.57;;
76459;SDS011;65299;46.084;18.762;2023-08-06T00:22:33;4.37;;;2.90;;
76459;SDS011;65299;46.084;18.762;2023-08-06T00:25:34;7.25;;;2.70;;
76459;SDS011;65299;46.084;18.762;2023-08-06T00:28:34;3.17;;;2.40;;
76459;SDS011;65299;46.084;18.762;2023-08-06T00:31:35;5.37;;;2.70;;
76459;SDS011;65299;46.084;18.762;2023-08-06T00:34:35;4.68;;;2.75;;
76459;SDS011;65299;46.084;18.762;2023-08-06T00:37:36;4.07;;;2.37;;
76459;SDS011;65299;46.084;18.762;2023-08-06T00:40:36;5.13;;;2.70;;
76459;SDS011;65299;46.084;18.762;2023-08-06T00:43:36;4.33;;;2.70;;
76459;SDS011;65299;46.084;18.762;2023-08-06T00:46:37;6.95;;;2.55;;
76459;SDS011;65299;46.084;18.762;2023-08-06T00:49:38;4.53;;;2.67;;
76459;SDS011;65299;46.084;18.762;2023-08-06T00:52:38;4.30;;;2.90;;
76459;SDS011;65299;46.084;18.762;2023-08-06T00:55:40;5.85;;;2.70;;
76459;SDS011;65299;46.084;18.762;2023-08-06T00:58:42;8.75;;;4.35;;
76459;SDS011;65299;46.084;18.762;2023-08-06T01:01:43;3.37;;;2.90;;
76459;SDS011;65299;46.084;18.762;2023-08-06T01:04:44;4.18;;;3.03;;
76459;SDS011;65299;46.084;18.762;2023-08-06T01:18:14;4.80;;;3.40;;
76459;SDS011;65299;46.084;18.762;2023-08-06T01:21:15;8.85;;;4.03;;
76459;SDS011;65299;46.084;18.762;2023-08-06T01:24:16;7.18;;;3.67;;
76459;SDS011;65299;46.084;18.762;2023-08-06T01:27:20;4.77;;;3.80;;
76459;SDS011;65299;46.084;18.762;2023-08-06T01:30:27;5.22;;;3.75;;
76459;SDS011;65299;46.084;18.762;2023-08-06T01:33:30;6.82;;;3.42;;
76459;SDS011;65299;46.084;18.762;2023-08-06T01:36:33;5.10;;;4.03;;
76459;SDS011;65299;46.084;18.762;2023-08-06T01:39:34;5.67;;;3.70;;
76459;SDS011;65299;46.084;18.762;2023-08-06T01:42:34;5.07;;;3.80;;
76459;SDS011;65299;46.084;18.762;2023-08-06T01:45:35;4.78;;;3.55;;
76459;SDS011;65299;46.084;18.762;2023-08-06T01:48:35;5.00;;;3.67;;
76459;SDS011;65299;46.084;18.762;2023-08-06T01:51:36;6.90;;;4.00;;
76459;SDS011;65299;46.084;18.762;2023-08-06T01:54:36;5.53;;;4.00;;
76459;SDS011;65299;46.084;18.762;2023-08-06T01:57:36;6.05;;;3.47;;
76459;SDS011;65299;46.084;18.762;2023-08-06T02:00:37;5.13;;;3.80;;
76459;SDS011;65299;46.084;18.762;2023-08-06T02:03:37;4.77;;;4.00;;
76459;SDS011;65299;46.084;18.762;2023-08-06T02:06:37;5.90;;;4.00;;
76459;SDS011;65299;46.084;18.762;2023-08-06T02:09:38;6.00;;;4.20;;
76459;SDS011;65299;46.084;18.762;2023-08-06T02:12:38;5.90;;;3.92;;
76459;SDS011;65299;46.084;18.762;2023-08-06T02:15:45;5.87;;;4.20;;
76459;SDS011;65299;46.084;18.762;2023-08-06T02:18:48;6.22;;;3.80;;
76459;SDS011;65299;46.084;18.762;2023-08-06T02:21:49;4.70;;;3.60;;
76459;SDS011;65299;46.084;18.762;2023-08-06T02:24:49;6.17;;;4.37;;
76459;SDS011;65299;46.084;18.762;2023-08-06T02:27:50;9.97;;;4.50;;
76459;SDS011;65299;46.084;18.762;2023-08-06T02:30:50;7.13;;;4.30;;
76459;SDS011;65299;46.084;18.762;2023-08-06T02:33:51;8.40;;;4.13;;
76459;SDS011;65299;46.084;18.762;2023-08-06T02:36:53;8.52;;;4.45;;
76459;SDS011;65299;46.084;18.762;2023-08-06T02:39:54;6.87;;;4.53;;
76459;SDS011;65299;46.084;18.762;2023-08-06T02:42:54;6.93;;;4.83;;
76459;SDS011;65299;46.084;18.762;2023-08-06T02:45:58;7.77;;;4.80;;
76459;SDS011;65299;46.084;18.762;2023-08-06T02:48:59;6.43;;;4.70;;
76459;SDS011;65299;46.084;18.762;2023-08-06T02:51:59;6.40;;;4.97;;
76459;SDS011;65299;46.084;18.762;2023-08-06T02:55:00;7.33;;;4.70;;
76459;SDS011;65299;46.084;18.762;2023-08-06T02:58:01;9.13;;;4.97;;
76459;SDS011;65299;46.084;18.762;2023-08-06T03:01:02;7.57;;;5.18;;
76459;SDS011;65299;46.084;18.762;2023-08-06T03:04:04;9.20;;;5.30;;
76459;SDS011;65299;46.084;18.762;2023-08-06T03:07:04;9.45;;;5.53;;
76459;SDS011;65299;46.084;18.762;2023-08-06T03:10:05;10.10;;;6.03;;
76459;SDS011;65299;46.084;18.762;2023-08-06T03:13:05;8.65;;;5.57;;
76459;SDS011;65299;46.084;18.762;2023-08-06T03:16:06;8.23;;;5.40;;
76459;SDS011;65299;46.084;18.762;2023-08-06T03:19:06;10.40;;;6.17;;
76459;SDS011;65299;46.084;18.762;2023-08-06T03:22:06;9.97;;;5.73;;
76459;SDS011;65299;46.084;18.762;2023-08-06T03:25:07;9.30;;;5.83;;
76459;SDS011;65299;46.084;18.762;2023-08-06T03:28:08;9.90;;;5.63;;
76459;SDS011;65299;46.084;18.762;2023-08-06T03:31:08;11.03;;;5.70;;
76459;SDS011;65299;46.084;18.762;2023-08-06T03:34:08;10.10;;;5.87;;
76459;SDS011;65299;46.084;18.762;2023-08-06T03:37:09;12.70;;;6.32;;
76459;SDS011;65299;46.084;18.762;2023-08-06T03:40:09;9.20;;;5.40;;
76459;SDS011;65299;46.084;18.762;2023-08-06T03:43:10;8.43;;;4.87;;
76459;SDS011;65299;46.084;18.762;2023-08-06T03:46:10;7.60;;;4.87;;
76459;SDS011;65299;46.084;18.762;2023-08-06T03:49:11;7.60;;;4.60;;
76459;SDS011;65299;46.084;18.762;2023-08-06T03:52:11;5.63;;;3.00;;
76459;SDS011;65299;46.084;18.762;2023-08-06T03:55:11;3.80;;;2.60;;
76459;SDS011;65299;46.084;18.762;2023-08-06T03:58:12;2.13;;;1.77;;
76459;SDS011;65299;46.084;18.762;2023-08-06T04:01:12;2.30;;;1.50;;
76459;SDS011;65299;46.084;18.762;2023-08-06T04:04:13;2.03;;;1.53;;
76459;SDS011;65299;46.084;18.762;2023-08-06T04:07:13;2.40;;;1.30;;
76459;SDS011;65299;46.084;18.762;2023-08-06T04:10:13;1.07;;;0.90;;
76459;SDS011;65299;46.084;18.762;2023-08-06T04:13:14;4.53;;;0.80;;
76459;SDS011;65299;46.084;18.762;2023-08-06T04:16:14;2.93;;;0.63;;
76459;SDS011;65299;46.084;18.762;2023-08-06T04:19:15;1.10;;;0.60;;
76459;SDS011;65299;46.084;18.762;2023-08-06T04:22:15;0.97;;;0.67;;
76459;SDS011;65299;46.084;18.762;2023-08-06T04:25:16;0.60;;;0.43;;
76459;SDS011;65299;46.084;18.762;2023-08-06T04:28:20;0.52;;;0.30;;
76459;SDS011;65299;46.084;18.762;2023-08-06T04:31:21;0.50;;;0.30;;
76459;SDS011;65299;46.084;18.762;2023-08-06T04:34:22;0.90;;;0.22;;
76459;SDS011;65299;46.084;18.762;2023-08-06T04:37:22;1.43;;;0.30;;
76459;SDS011;65299;46.084;18.762;2023-08-06T04:40:22;0.63;;;0.20;;
76459;SDS011;65299;46.084;18.762;2023-08-06T04:43:23;0.40;;;0.40;;
76459;SDS011;65299;46.084;18.762;2023-08-06T04:46:24;0.32;;;0.10;;
76459;SDS011;65299;46.084;18.762;2023-08-06T04:49:24;1.23;;;0.30;;
76459;SDS011;65299;46.084;18.762;2023-08-06T04:52:25;0.50;;;0.30;;
76459;SDS011;65299;46.084;18.762;2023-08-06T04:55:28;1.73;;;0.30;;
76459;SDS011;65299;46.084;18.762;2023-08-06T04:58:28;0.27;;;0.20;;
76459;SDS011;65299;46.084;18.762;2023-08-06T05:01:28;0.30;;;0.20;;
76459;SDS011;65299;46.084;18.762;2023-08-06T05:04:29;2.53;;;0.30;;
76459;SDS011;65299;46.084;18.762;2023-08-06T05:07:29;1.00;;;0.10;;
76459;SDS011;65299;46.084;18.762;2023-08-06T05:10:30;1.45;;;0.20;;
76459;SDS011;65299;46.084;18.762;2023-08-06T05:13:30;1.27;;;0.10;;
76459;SDS011;65299;46.084;18.762;2023-08-06T05:16:31;0.10;;;0.00;;
76459;SDS011;65299;46.084;18.762;2023-08-06T05:19:31;0.10;;;0.00;;
76459;SDS011;65299;46.084;18.762;2023-08-06T05:22:31;1.90;;;0.10;;
76459;SDS011;65299;46.084;18.762;2023-08-06T05:25:34;0.20;;;0.00;;
76459;SDS011;65299;46.084;18.762;2023-08-06T05:28:35;0.20;;;0.20;;
76459;SDS011;65299;46.084;18.762;2023-08-06T05:31:35;0.53;;;0.10;;
76459;SDS011;65299;46.084;18.762;2023-08-06T05:34:36;0.97;;;0.03;;
76459;SDS011;65299;46.084;18.762;2023-08-06T05:37:36;0.10;;;0.03;;
76459;SDS011;65299;46.084;18.762;2023-08-06T05:40:37;0.20;;;0.00;;
76459;SDS011;65299;46.084;18.762;2023-08-06T05:43:37;0.20;;;0.00;;
76459;SDS011;65299;46.084;18.762;2023-08-06T05:46:38;0.20;;;0.00;;
76459;SDS011;65299;46.084;18.762;2023-08-06T05:49:38;0.00;;;0.00;;
76459;SDS011;65299;46.084;18.762;2023-08-06T05:52:38;0.07;;;0.07;;
76459;SDS011;65299;46.084;18.762;2023-08-06T05:55:39;0.20;;;0.00;;
76459;SDS011;65299;46.084;18.762;2023-08-06T05:58:39;0.40;;;0.00;;
76459;SDS011;65299;46.084;18.762;2023-08-06T06:01:40;2.20;;;0.00;;
76459;SDS011;65299;46.084;18.762;2023-08-06T06:04:40;0.10;;;0.10;;
76459;SDS011;65299;46.084;18.762;2023-08-06T06:07:40;0.73;;;0.00;;
76459;SDS011;65299;46.084;18.762;2023-08-06T06:10:41;0.17;;;0.17;;
76459;SDS011;65299;46.084;18.762;2023-08-06T06:13:41;0.00;;;0.00;;
76459;SDS011;65299;46.084;18.762;2023-08-06T06:16:42;0.03;;;0.00;;
76459;SDS011;65299;46.084;18.762;2023-08-06T06:19:42;0.00;;;0.00;;
76459;SDS011;65299;46.084;18.762;2023-08-06T06:22:42;0.40;;;0.00;;
76459;SDS011;65299;46.084;18.762;2023-08-06T06:25:43;0.00;;;0.00;;
76459;SDS011;65299;46.084;18.762;2023-08-06T06:28:46;0.00;;;0.00;;
76459;SDS011;65299;46.084;18.762;2023-08-06T06:31:47;1.50;;;0.00;;
76459;SDS011;65299;46.084;18.762;2023-08-06T06:34:47;0.00;;;0.00;;
76459;SDS011;65299;46.084;18.762;2023-08-06T06:37:48;0.68;;;0.00;;
76459;SDS011;65299;46.084;18.762;2023-08-06T06:40:56;0.00;;;0.00;;
76459;SDS011;65299;46.084;18.762;2023-08-06T06:43:56;0.00;;;0.00;;
76459;SDS011;65299;46.084;18.762;2023-08-06T06:46:57;0.50;;;0.03;;
76459;SDS011;65299;46.084;18.762;2023-08-06T06:49:57;0.00;;;0.00;;
76459;SDS011;65299;46.084;18.762;2023-08-06T06:52:57;0.10;;;0.00;;
76459;SDS011;65299;46.084;18.762;2023-08-06T06:56:01;0.10;;;0.00;;
76459;SDS011;65299;46.084;18.762;2023-08-06T06:59:03;0.10;;;0.00;;
76459;SDS011;65299;46.084;18.762;2023-08-06T07:02:03;3.40;;;0.60;;
76459;SDS011;65299;46.084;18.762;2023-08-06T07:05:04;0.40;;;0.00;;
76459;SDS011;65299;46.084;18.762;2023-08-06T07:08:06;0.30;;;0.00;;
76459;SDS011;65299;46.084;18.762;2023-08-06T07:11:06;0.00;;;0.00;;
76459;SDS011;65299;46.084;18.762;2023-08-06T07:14:07;0.20;;;0.13;;
76459;SDS011;65299;46.084;18.762;2023-08-06T07:17:07;0.77;;;0.67;;
76459;SDS011;65299;46.084;18.762;2023-08-06T07:20:08;0.27;;;0.10;;
76459;SDS011;65299;46.084;18.762;2023-08-06T07:23:09;0.22;;;0.20;;
76459;SDS011;65299;46.084;18.762;2023-08-06T07:26:09;1.27;;;0.10;;
76459;SDS011;65299;46.084;18.762;2023-08-06T07:29:09;0.87;;;0.10;;
76459;SDS011;65299;46.084;18.762;2023-08-06T07:32:10;0.27;;;0.20;;
76459;SDS011;65299;46.084;18.762;2023-08-06T07:35:10;0.20;;;0.00;;
76459;SDS011;65299;46.084;18.762;2023-08-06T07:38:12;0.75;;;0.50;;
76459;SDS011;65299;46.084;18.762;2023-08-06T07:41:12;1.00;;;0.47;;
76459;SDS011;65299;46.084;18.762;2023-08-06T07:44:13;0.83;;;0.20;;
76459;SDS011;65299;46.084;18.762;2023-08-06T07:47:13;0.97;;;0.20;;
76459;SDS011;65299;46.084;18.762;2023-08-06T07:50:14;0.40;;;0.00;;
76459;SDS011;65299;46.084;18.762;2023-08-06T07:53:14;0.30;;;0.10;;
76459;SDS011;65299;46.084;18.762;2023-08-06T07:56:15;1.13;;;0.10;;
76459;SDS011;65299;46.084;18.762;2023-08-06T07:59:15;0.10;;;0.00;;
76459;SDS011;65299;46.084;18.762;2023-08-06T08:02:15;1.50;;;0.00;;
76459;SDS011;65299;46.084;18.762;2023-08-06T08:05:16;0.15;;;0.00;;
76459;SDS011;65299;46.084;18.762;2023-08-06T08:08:16;0.20;;;0.10;;
76459;SDS011;65299;46.084;18.762;2023-08-06T08:11:17;0.20;;;0.00;;
76459;SDS011;65299;46.084;18.762;2023-08-06T08:14:18;1.48;;;0.00;;
76459;SDS011;65299;46.084;18.762;2023-08-06T08:17:18;0.10;;;0.00;;
76459;SDS011;65299;46.084;18.762;2023-08-06T08:20:19;0.10;;;0.00;;
76459;SDS011;65299;46.084;18.762;2023-08-06T08:23:20;0.10;;;0.00;;
76459;SDS011;65299;46.084;18.762;2023-08-06T08:26:20;0.37;;;0.10;;
76459;SDS011;65299;46.084;18.762;2023-08-06T08:29:21;0.20;;;0.00;;
76459;SDS011;65299;46.084;18.762;2023-08-06T08:32:22;0.33;;;0.10;;
76459;SDS011;65299;46.084;18.762;2023-08-06T08:35:23;0.22;;;0.10;;
76459;SDS011;65299;46.084;18.762;2023-08-06T08:38:24;1.23;;;0.10;;
76459;SDS011;65299;46.084;18.762;2023-08-06T08:41:24;0.13;;;0.13;;
76459;SDS011;65299;46.084;18.762;2023-08-06T08:44:28;0.35;;;0.10;;
76459;SDS011;65299;46.084;18.762;2023-08-06T08:47:31;0.40;;;0.10;;
76459;SDS011;65299;46.084;18.762;2023-08-06T08:50:32;0.57;;;0.10;;
76459;SDS011;65299;46.084;18.762;2023-08-06T08:53:34;0.40;;;0.20;;
76459;SDS011;65299;46.084;18.762;2023-08-06T08:56:38;0.38;;;0.08;;
76459;SDS011;65299;46.084;18.762;2023-08-06T08:59:38;0.87;;;0.10;;
76459;SDS011;65299;46.084;18.762;2023-08-06T09:02:39;0.17;;;0.07;;
76459;SDS011;65299;46.084;18.762;2023-08-06T09:05:44;0.35;;;0.17;;
76459;SDS011;65299;46.084;18.762;2023-08-06T09:08:56;0.40;;;0.00;;
76459;SDS011;65299;46.084;18.762;2023-08-06T09:12:04;0.52;;;0.05;;
76459;SDS011;65299;46.084;18.762;2023-08-06T09:15:11;0.00;;;0.00;;
76459;SDS011;65299;46.084;18.762;2023-08-06T09:18:11;0.10;;;0.00;;
76459;SDS011;65299;46.084;18.762;2023-08-06T09:21:15;0.30;;;0.10;;
76459;SDS011;65299;46.084;18.762;2023-08-06T09:24:16;0.57;;;0.13;;
76459;SDS011;65299;46.084;18.762;2023-08-06T09:27:16;0.85;;;0.20;;
76459;SDS011;65299;46.084;18.762;2023-08-06T09:30:30;0.10;;;0.00;;
76459;SDS011;65299;46.084;18.762;2023-08-06T09:33:37;0.13;;;0.10;;
76459;SDS011;65299;46.084;18.762;2023-08-06T09:36:42;2.05;;;0.30;;
76459;SDS011;65299;46.084;18.762;2023-08-06T09:39:43;0.50;;;0.20;;
76459;SDS011;65299;46.084;18.762;2023-08-06T09:42:43;0.23;;;0.20;;
76459;SDS011;65299;46.084;18.762;2023-08-06T09:45:45;0.52;;;0.10;;
76459;SDS011;65299;46.084;18.762;2023-08-06T09:48:46;1.63;;;0.20;;
76459;SDS011;65299;46.084;18.762;2023-08-06T09:51:47;0.40;;;0.20;;
76459;SDS011;65299;46.084;18.762;2023-08-06T09:54:50;0.30;;;0.20;;
76459;SDS011;65299;46.084;18.762;2023-08-06T09:57:52;0.30;;;0.10;;
76459;SDS011;65299;46.084;18.762;2023-08-06T10:00:53;0.70;;;0.27;;
76459;SDS011;65299;46.084;18.762;2023-08-06T10:03:54;0.32;;;0.13;;
76459;SDS011;65299;46.084;18.762;2023-08-06T10:06:57;0.40;;;0.13;;
76459;SDS011;65299;46.084;18.762;2023-08-06T10:09:58;0.97;;;0.20;;
76459;SDS011;65299;46.084;18.762;2023-08-06T10:12:59;0.90;;;0.20;;
76459;SDS011;65299;46.084;18.762;2023-08-06T10:16:02;0.80;;;0.17;;
76459;SDS011;65299;46.084;18.762;2023-08-06T10:19:04;1.65;;;0.20;;
76459;SDS011;65299;46.084;18.762;2023-08-06T10:22:17;0.65;;;0.35;;
76459;SDS011;65299;46.084;18.762;2023-08-06T10:25:18;0.57;;;0.20;;
76459;SDS011;65299;46.084;18.762;2023-08-06T10:28:18;0.40;;;0.20;;
76459;SDS011;65299;46.084;18.762;2023-08-06T10:31:19;0.30;;;0.10;;
76459;SDS011;65299;46.084;18.762;2023-08-06T10:34:20;0.15;;;0.10;;
76459;SDS011;65299;46.084;18.762;2023-08-06T10:37:20;0.50;;;0.20;;
76459;SDS011;65299;46.084;18.762;2023-08-06T10:40:21;0.43;;;0.10;;
76459;SDS011;65299;46.084;18.762;2023-08-06T10:43:30;0.25;;;0.17;;
76459;SDS011;65299;46.084;18.762;2023-08-06T10:46:32;0.40;;;0.07;;
76459;SDS011;65299;46.084;18.762;2023-08-06T10:49:32;0.22;;;0.17;;
76459;SDS011;65299;46.084;18.762;2023-08-06T10:52:33;0.87;;;0.13;;
76459;SDS011;65299;46.084;18.762;2023-08-06T10:55:34;3.33;;;0.40;;
76459;SDS011;65299;46.084;18.762;2023-08-06T10:58:35;0.20;;;0.10;;
76459;SDS011;65299;46.084;18.762;2023-08-06T11:01:35;1.53;;;0.30;;
76459;SDS011;65299;46.084;18.762;2023-08-06T11:04:35;0.15;;;0.00;;
76459;SDS011;65299;46.084;18.762;2023-08-06T11:07:36;0.20;;;0.10;;
76459;SDS011;65299;46.084;18.762;2023-08-06T11:10:37;0.70;;;0.20;;
76459;SDS011;65299;46.084;18.762;2023-08-06T11:13:38;0.60;;;0.07;;
76459;SDS011;65299;46.084;18.762;2023-08-06T11:16:39;0.20;;;0.00;;
76459;SDS011;65299;46.084;18.762;2023-08-06T11:19:40;0.83;;;0.20;;
76459;SDS011;65299;46.084;18.762;2023-08-06T11:22:41;0.60;;;0.10;;
76459;SDS011;65299;46.084;18.762;2023-08-06T11:25:45;0.63;;;0.20;;
76459;SDS011;65299;46.084;18.762;2023-08-06T11:28:45;0.38;;;0.10;;
76459;SDS011;65299;46.084;18.762;2023-08-06T11:31:46;0.93;;;0.10;;
76459;SDS011;65299;46.084;18.762;2023-08-06T11:34:46;0.73;;;0.00;;
76459;SDS011;65299;46.084;18.762;2023-08-06T11:37:47;0.20;;;0.10;;
76459;SDS011;65299;46.084;18.762;2023-08-06T11:40:47;2.80;;;0.10;;
76459;SDS011;65299;46.084;18.762;2023-08-06T11:43:48;2.03;;;0.20;;
76459;SDS011;65299;46.084;18.762;2023-08-06T11:46:52;1.45;;;0.20;;
76459;SDS011;65299;46.084;18.762;2023-08-06T11:49:55;0.30;;;0.20;;
76459;SDS011;65299;46.084;18.762;2023-08-06T11:52:57;0.80;;;0.40;;
76459;SDS011;65299;46.084;18.762;2023-08-06T11:55:59;0.47;;;0.30;;
76459;SDS011;65299;46.084;18.762;2023-08-06T11:59:00;1.38;;;0.25;;
76459;SDS011;65299;46.084;18.762;2023-08-06T12:02:01;0.70;;;0.30;;
76459;SDS011;65299;46.084;18.762;2023-08-06T12:08:12;0.57;;;0.28;;
76459;SDS011;65299;46.084;18.762;2023-08-06T12:11:12;0.23;;;0.13;;
76459;SDS011;65299;46.084;18.762;2023-08-06T12:14:13;0.13;;;0.10;;
76459;SDS011;65299;46.084;18.762;2023-08-06T12:17:13;0.20;;;0.10;;
76459;SDS011;65299;46.084;18.762;2023-08-06T12:20:13;1.17;;;0.00;;
76459;SDS011;65299;46.084;18.762;2023-08-06T12:23:14;8.98;;;0.65;;
76459;SDS011;65299;46.084;18.762;2023-08-06T12:26:15;1.05;;;0.10;;
76459;SDS011;65299;46.084;18.762;2023-08-06T12:29:15;0.70;;;0.30;;
76459;SDS011;65299;46.084;18.762;2023-08-06T12:32:16;2.13;;;0.30;;
76459;SDS011;65299;46.084;18.762;2023-08-06T12:35:16;4.20;;;0.30;;
76459;SDS011;65299;46.084;18.762;2023-08-06T12:38:17;0.50;;;0.10;;
76459;SDS011;65299;46.084;18.762;2023-08-06T12:41:17;1.90;;;0.27;;
76459;SDS011;65299;46.084;18.762;2023-08-06T12:44:17;2.27;;;0.30;;
76459;SDS011;65299;46.084;18.762;2023-08-06T12:47:18;0.40;;;0.10;;
76459;SDS011;65299;46.084;18.762;2023-08-06T12:50:19;1.55;;;0.32;;
76459;SDS011;65299;46.084;18.762;2023-08-06T12:53:20;1.60;;;0.30;;
76459;SDS011;65299;46.084;18.762;2023-08-06T12:56:22;1.10;;;0.22;;
76459;SDS011;65299;46.084;18.762;2023-08-06T12:59:22;1.33;;;0.10;;
76459;SDS011;65299;46.084;18.762;2023-08-06T13:02:23;1.07;;;0.37;;
76459;SDS011;65299;46.084;18.762;2023-08-06T13:05:23;0.80;;;0.30;;
76459;SDS011;65299;46.084;18.762;2023-08-06T13:08:23;1.17;;;0.20;;
76459;SDS011;65299;46.084;18.762;2023-08-06T13:11:24;0.40;;;0.20;;
76459;SDS011;65299;46.084;18.762;2023-08-06T13:14:24;0.30;;;0.10;;
76459;SDS011;65299;46.084;18.762;2023-08-06T13:17:25;0.90;;;0.20;;
76459;SDS011;65299;46.084;18.762;2023-08-06T13:20:26;1.83;;;0.20;;
76459;SDS011;65299;46.084;18.762;2023-08-06T13:23:27;0.55;;;0.15;;
76459;SDS011;65299;46.084;18.762;2023-08-06T13:26:28;1.27;;;0.30;;
76459;SDS011;65299;46.084;18.762;2023-08-06T13:29:29;0.50;;;0.30;;
76459;SDS011;65299;46.084;18.762;2023-08-06T13:32:30;0.17;;;0.10;;
76459;SDS011;65299;46.084;18.762;2023-08-06T13:35:30;1.13;;;0.30;;
76459;SDS011;65299;46.084;18.762;2023-08-06T13:38:30;0.73;;;0.40;;
76459;SDS011;65299;46.084;18.762;2023-08-06T13:41:31;0.50;;;0.40;;
76459;SDS011;65299;46.084;18.762;2023-08-06T13:44:31;0.20;;;0.10;;
76459;SDS011;65299;46.084;18.762;2023-08-06T13:47:35;0.50;;;0.40;;
76459;SDS011;65299;46.084;18.762;2023-08-06T13:50:36;0.45;;;0.43;;
76459;SDS011;65299;46.084;18.762;2023-08-06T13:53:37;1.63;;;0.20;;
76459;SDS011;65299;46.084;18.762;2023-08-06T13:56:38;0.30;;;0.30;;
76459;SDS011;65299;46.084;18.762;2023-08-06T13:59:39;0.57;;;0.20;;
76459;SDS011;65299;46.084;18.762;2023-08-06T14:02:39;1.33;;;0.28;;
76459;SDS011;65299;46.084;18.762;2023-08-06T14:05:39;0.20;;;0.13;;
76459;SDS011;65299;46.084;18.762;2023-08-06T14:08:40;0.43;;;0.30;;
76459;SDS011;65299;46.084;18.762;2023-08-06T14:11:40;1.30;;;0.10;;
76459;SDS011;65299;46.084;18.762;2023-08-06T14:14:41;0.25;;;0.10;;
76459;SDS011;65299;46.084;18.762;2023-08-06T14:17:41;0.73;;;0.10;;
76459;SDS011;65299;46.084;18.762;2023-08-06T14:20:42;0.40;;;0.13;;
76459;SDS011;65299;46.084;18.762;2023-08-06T14:23:43;0.52;;;0.10;;
76459;SDS011;65299;46.084;18.762;2023-08-06T14:26:43;1.23;;;0.10;;
76459;SDS011;65299;46.084;18.762;2023-08-06T14:29:43;0.30;;;0.20;;
76459;SDS011;65299;46.084;18.762;2023-08-06T14:32:44;1.30;;;0.30;;
76459;SDS011;65299;46.084;18.762;2023-08-06T14:35:44;1.07;;;0.27;;
76459;SDS011;65299;46.084;18.762;2023-08-06T14:38:45;0.60;;;0.50;;
76459;SDS011;65299;46.084;18.762;2023-08-06T14:41:45;0.38;;;0.10;;
76459;SDS011;65299;46.084;18.762;2023-08-06T14:44:47;0.77;;;0.20;;
76459;SDS011;65299;46.084;18.762;2023-08-06T14:47:47;0.47;;;0.20;;
76459;SDS011;65299;46.084;18.762;2023-08-06T14:50:47;0.40;;;0.30;;
76459;SDS011;65299;46.084;18.762;2023-08-06T14:53:48;0.20;;;0.10;;
76459;SDS011;65299;46.084;18.762;2023-08-06T14:56:49;0.30;;;0.10;;
76459;SDS011;65299;46.084;18.762;2023-08-06T14:59:49;0.30;;;0.30;;
76459;SDS011;65299;46.084;18.762;2023-08-06T15:02:49;1.03;;;0.30;;
76459;SDS011;65299;46.084;18.762;2023-08-06T15:05:50;0.50;;;0.10;;
76459;SDS011;65299;46.084;18.762;2023-08-06T15:08:50;0.30;;;0.10;;
76459;SDS011;65299;46.084;18.762;2023-08-06T15:11:51;0.43;;;0.40;;
76459;SDS011;65299;46.084;18.762;2023-08-06T15:14:51;0.70;;;0.10;;
76459;SDS011;65299;46.084;18.762;2023-08-06T15:17:52;0.30;;;0.20;;
76459;SDS011;65299;46.084;18.762;2023-08-06T15:20:52;0.70;;;0.30;;
76459;SDS011;65299;46.084;18.762;2023-08-06T15:23:53;3.50;;;0.30;;
76459;SDS011;65299;46.084;18.762;2023-08-06T15:26:54;0.75;;;0.30;;
76459;SDS011;65299;46.084;18.762;2023-08-06T15:29:54;0.87;;;0.33;;
76459;SDS011;65299;46.084;18.762;2023-08-06T15:32:55;0.77;;;0.37;;
76459;SDS011;65299;46.084;18.762;2023-08-06T15:35:55;1.15;;;0.70;;
76459;SDS011;65299;46.084;18.762;2023-08-06T15:38:57;1.55;;;0.47;;
76459;SDS011;65299;46.084;18.762;2023-08-06T15:41:57;0.43;;;0.30;;
76459;SDS011;65299;46.084;18.762;2023-08-06T15:44:58;0.50;;;0.50;;
76459;SDS011;65299;46.084;18.762;2023-08-06T15:47:59;0.90;;;0.45;;
76459;SDS011;65299;46.084;18.762;2023-08-06T15:50:59;1.40;;;0.30;;
76459;SDS011;65299;46.084;18.762;2023-08-06T15:54:00;0.60;;;0.30;;
76459;SDS011;65299;46.084;18.762;2023-08-06T15:57:00;0.30;;;0.23;;
76459;SDS011;65299;46.084;18.762;2023-08-06T16:00:02;0.98;;;0.30;;
76459;SDS011;65299;46.084;18.762;2023-08-06T16:03:04;0.40;;;0.30;;
76459;SDS011;65299;46.084;18.762;2023-08-06T16:06:04;0.68;;;0.47;;
76459;SDS011;65299;46.084;18.762;2023-08-06T16:09:05;0.70;;;0.40;;
76459;SDS011;65299;46.084;18.762;2023-08-06T16:12:06;0.63;;;0.30;;
76459;SDS011;65299;46.084;18.762;2023-08-06T16:15:06;0.90;;;0.38;;
76459;SDS011;65299;46.084;18.762;2023-08-06T16:18:07;0.93;;;0.50;;
76459;SDS011;65299;46.084;18.762;2023-08-06T16:21:08;1.10;;;0.70;;
76459;SDS011;65299;46.084;18.762;2023-08-06T16:24:08;0.50;;;0.40;;
76459;SDS011;65299;46.084;18.762;2023-08-06T16:27:09;1.23;;;0.50;;
76459;SDS011;65299;46.084;18.762;2023-08-06T16:30:09;1.55;;;0.30;;
76459;SDS011;65299;46.084;18.762;2023-08-06T16:33:10;1.37;;;0.40;;
76459;SDS011;65299;46.084;18.762;2023-08-06T16:36:10;1.40;;;0.20;;
76459;SDS011;65299;46.084;18.762;2023-08-06T16:39:11;0.73;;;0.50;;
76459;SDS011;65299;46.084;18.762;2023-08-06T16:42:12;0.65;;;0.50;;
76459;SDS011;65299;46.084;18.762;2023-08-06T16:45:12;0.70;;;0.50;;
76459;SDS011;65299;46.084;18.762;2023-08-06T16:48:12;0.60;;;0.20;;
76459;SDS011;65299;46.084;18.762;2023-08-06T16:51:13;1.43;;;0.30;;
76459;SDS011;65299;46.084;18.762;2023-08-06T16:54:16;0.85;;;0.30;;
76459;SDS011;65299;46.084;18.762;2023-08-06T16:57:16;4.50;;;0.77;;
76459;SDS011;65299;46.084;18.762;2023-08-06T17:00:16;0.77;;;0.50;;
76459;SDS011;65299;46.084;18.762;2023-08-06T17:03:17;1.67;;;0.40;;
76459;SDS011;65299;46.084;18.762;2023-08-06T17:06:18;0.73;;;0.40;;
76459;SDS011;65299;46.084;18.762;2023-08-06T17:09:18;0.70;;;0.70;;
76459;SDS011;65299;46.084;18.762;2023-08-06T17:12:19;0.60;;;0.30;;
76459;SDS011;65299;46.084;18.762;2023-08-06T17:15:21;0.75;;;0.30;;
76459;SDS011;65299;46.084;18.762;2023-08-06T17:18:22;1.85;;;0.40;;
76459;SDS011;65299;46.084;18.762;2023-08-06T17:21:22;1.10;;;0.20;;
76459;SDS011;65299;46.084;18.762;2023-08-06T17:24:22;3.03;;;1.20;;
76459;SDS011;65299;46.084;18.762;2023-08-06T17:27:23;1.13;;;0.77;;
76459;SDS011;65299;46.084;18.762;2023-08-06T17:30:23;1.60;;;0.60;;
76459;SDS011;65299;46.084;18.762;2023-08-06T17:33:24;1.25;;;0.50;;
76459;SDS011;65299;46.084;18.762;2023-08-06T17:36:24;1.10;;;0.63;;
76459;SDS011;65299;46.084;18.762;2023-08-06T17:39:25;1.13;;;0.90;;
76459;SDS011;65299;46.084;18.762;2023-08-06T17:42:25;0.60;;;0.50;;
76459;SDS011;65299;46.084;18.762;2023-08-06T17:45:26;2.47;;;0.80;;
76459;SDS011;65299;46.084;18.762;2023-08-06T17:48:26;2.73;;;0.60;;
76459;SDS011;65299;46.084;18.762;2023-08-06T17:51:27;0.73;;;0.52;;
76459;SDS011;65299;46.084;18.762;2023-08-06T17:54:28;2.00;;;0.40;;
76459;SDS011;65299;46.084;18.762;2023-08-06T17:57:28;0.55;;;0.47;;
76459;SDS011;65299;46.084;18.762;2023-08-06T18:00:28;0.90;;;0.57;;
76459;SDS011;65299;46.084;18.762;2023-08-06T18:03:29;0.67;;;0.40;;
76459;SDS011;65299;46.084;18.762;2023-08-06T18:06:29;1.70;;;0.50;;